Time;durP1;ratioP1;P1;durP2;ratioP2;P2;SDS_P1;SDS_P2;PMS_P1;PMS_P2;Temp;Humidity;BMP_temperature;BMP_pressure;BME280_temperature;BME280_humidity;BME280_pressure;Samples;Min_cycle;Max_cycle;Signal;HPM_P1;HPM_P2
2023/01/09 00:02:09;;;;;;;3.53;1.93;;;10.60;99.90;;;;;;4892164;29;20597;-76
2023/01/09 00:04:34;;;;;;;2.13;1.80;;;10.50;99.90;;;;;;4885883;29;20185;-76
2023/01/09 00:07:00;;;;;;;1.83;1.73;;;10.40;99.90;;;;;;4887342;29;20185;-76
2023/01/09 00:09:25;;;;;;;1.87;1.67;;;10.30;99.90;;;;;;4889263;29;20242;-76
2023/01/09 00:11:53;;;;;;;2.60;1.90;;;10.40;99.90;;;;;;4891068;29;20208;-77
2023/01/09 00:14:19;;;;;;;2.77;1.47;;;10.30;99.90;;;;;;4890603;29;20220;-75
2023/01/09 00:16:45;;;;;;;2.33;1.60;;;10.30;99.90;;;;;;4892214;29;20477;-73
2023/01/09 00:19:11;;;;;;;2.03;1.33;;;10.30;99.90;;;;;;4894810;29;20443;-75
2023/01/09 00:21:37;;;;;;;2.70;1.43;;;10.20;99.90;;;;;;4886981;29;20193;-76
2023/01/09 00:24:03;;;;;;;1.93;1.07;;;10.20;99.90;;;;;;4897370;29;20190;-74
2023/01/09 00:26:28;;;;;;;5.10;1.30;;;10.30;99.90;;;;;;4896017;29;20275;-79
2023/01/09 00:28:54;;;;;;;1.20;0.90;;;10.20;99.90;;;;;;4894160;29;20444;-74
2023/01/09 00:31:20;;;;;;;1.10;1.00;;;10.30;99.90;;;;;;4892245;29;20715;-75
2023/01/09 00:33:55;;;;;;;2.60;1.40;;;10.20;99.90;;;;;;4890878;29;20188;-75
2023/01/09 00:36:21;;;;;;;1.10;0.90;;;10.10;99.90;;;;;;4887307;29;20462;-75
2023/01/09 00:38:46;;;;;;;1.40;1.07;;;10.10;99.90;;;;;;4889107;29;20523;-75
2023/01/09 00:41:18;;;;;;;1.67;0.90;;;10.10;99.90;;;;;;4884602;29;20212;-79
2023/01/09 00:43:52;;;;;;;2.00;0.90;;;10.00;99.90;;;;;;4890712;29;20215;-82
2023/01/09 00:46:21;;;;;;;2.63;1.07;;;10.00;99.90;;;;;;4892758;29;20452;-82
2023/01/09 00:48:48;;;;;;;1.83;1.00;;;10.00;99.90;;;;;;4897087;29;20433;-80
2023/01/09 00:51:14;;;;;;;1.47;1.10;;;10.00;99.90;;;;;;4890747;29;20462;-80
2023/01/09 00:53:42;;;;;;;1.10;0.90;;;9.90;99.90;;;;;;4881405;29;20552;-80
2023/01/09 00:56:13;;;;;;;1.10;0.80;;;9.80;99.90;;;;;;4886950;29;20438;-75
2023/01/09 00:58:38;;;;;;;1.00;0.70;;;9.70;99.90;;;;;;4889014;29;20500;-76
2023/01/09 01:01:04;;;;;;;2.00;1.13;;;9.80;99.90;;;;;;4891222;29;20944;-77
2023/01/09 01:03:30;;;;;;;1.57;0.83;;;9.90;99.90;;;;;;4891568;29;20188;-78
2023/01/09 01:08:40;;;;;;;3.47;1.00;;;9.70;99.90;;;;;;4888893;29;20196;-75
2023/01/09 01:11:08;;;;;;;1.10;0.70;;;9.60;99.90;;;;;;4893171;29;20433;-75
2023/01/09 01:13:35;;;;;;;1.33;0.93;;;9.60;99.90;;;;;;4898247;29;20188;-75
2023/01/09 01:16:04;;;;;;;1.00;0.73;;;9.60;99.90;;;;;;4900327;29;20447;-75
2023/01/09 01:18:29;;;;;;;1.13;0.80;;;9.70;99.90;;;;;;4900392;29;20448;-74
2023/01/09 01:20:55;;;;;;;1.47;0.80;;;9.70;99.90;;;;;;4889534;29;20442;-76
2023/01/09 01:23:20;;;;;;;2.23;1.00;;;9.70;99.90;;;;;;4885833;29;20189;-75
2023/01/09 01:25:46;;;;;;;1.00;0.77;;;9.70;99.90;;;;;;4887546;29;20246;-74
2023/01/09 01:28:12;;;;;;;1.00;0.83;;;9.60;99.90;;;;;;4889300;29;20196;-75
2023/01/09 05:31:35;;;;;;;4.90;2.53;;;9.00;99.90;;;;;;5387780;23;20565;-69
2023/01/09 05:34:00;;;;;;;5.10;2.33;;;9.00;99.90;;;;;;4906538;29;21030;-72
2023/01/09 05:36:27;;;;;;;4.90;1.83;;;9.00;99.90;;;;;;4908005;29;20207;-70
2023/01/09 05:38:52;;;;;;;7.03;2.17;;;9.00;99.90;;;;;;4910190;29;20192;-71
2023/01/09 05:41:18;;;;;;;3.20;2.57;;;9.00;99.90;;;;;;4911857;29;20935;-69
2023/01/09 05:43:44;;;;;;;4.80;3.30;;;8.90;99.90;;;;;;4913357;29;20218;-70
2023/01/09 05:46:10;;;;;;;3.90;2.50;;;8.90;99.90;;;;;;4914639;29;20234;-69
2023/01/09 05:48:36;;;;;;;5.33;1.97;;;9.00;99.90;;;;;;4916367;29;20907;-72
2023/01/09 05:51:02;;;;;;;3.43;2.03;;;9.00;99.90;;;;;;4899366;29;20196;-72
2023/01/09 05:53:27;;;;;;;1.80;1.70;;;8.90;99.90;;;;;;4902004;29;20440;-75
2023/01/09 05:55:53;;;;;;;4.97;1.80;;;9.00;99.90;;;;;;4906204;29;20211;-74
2023/01/09 05:58:18;;;;;;;3.60;2.10;;;8.90;99.90;;;;;;4904744;29;20195;-74
2023/01/09 06:00:44;;;;;;;9.27;2.30;;;9.00;99.90;;;;;;4910623;29;20187;-74
2023/01/09 06:03:10;;;;;;;4.30;1.57;;;9.00;99.90;;;;;;4916444;29;20537;-74
2023/01/09 06:05:37;;;;;;;2.20;1.40;;;9.00;99.90;;;;;;4909442;29;20192;-74
2023/01/09 06:08:03;;;;;;;4.27;1.33;;;9.10;99.90;;;;;;4913010;29;20182;-75
2023/01/09 06:10:29;;;;;;;3.63;1.30;;;9.10;99.90;;;;;;4913373;29;20995;-74
2023/01/09 06:12:54;;;;;;;4.17;1.03;;;9.10;99.90;;;;;;4886155;29;20199;-74
2023/01/09 06:15:20;;;;;;;4.90;1.40;;;9.10;99.90;;;;;;4901019;29;20251;-73
2023/01/09 06:17:45;;;;;;;6.60;1.47;;;9.20;99.90;;;;;;4900558;29;20267;-73
2023/01/09 06:20:11;;;;;;;10.50;1.77;;;9.00;99.90;;;;;;4916474;29;20715;-73
2023/01/09 06:22:37;;;;;;;4.13;1.50;;;9.10;99.90;;;;;;4915261;29;20192;-74
2023/01/09 06:25:03;;;;;;;11.57;2.30;;;9.10;99.90;;;;;;4913917;29;20639;-73
2023/01/09 06:27:28;;;;;;;5.20;1.80;;;9.20;99.90;;;;;;4911712;29;20236;-74
2023/01/09 06:29:54;;;;;;;3.83;1.50;;;9.20;99.90;;;;;;4910666;29;20511;-74
2023/01/09 06:32:19;;;;;;;7.63;1.13;;;9.10;99.90;;;;;;4909007;29;20237;-73
2023/01/09 06:34:45;;;;;;;6.17;1.67;;;9.10;99.90;;;;;;4908524;29;20224;-73
2023/01/09 06:37:11;;;;;;;2.87;1.47;;;9.10;99.90;;;;;;4904917;29;20188;-75
2023/01/09 06:39:36;;;;;;;2.27;1.37;;;9.10;99.90;;;;;;4903511;29;20188;-75
2023/01/09 06:42:02;;;;;;;3.77;1.40;;;9.10;99.90;;;;;;4911246;29;20180;-75
2023/01/09 06:44:28;;;;;;;4.80;1.20;;;9.10;99.90;;;;;;4917928;29;20214;-75
2023/01/09 06:46:53;;;;;;;9.37;1.67;;;9.00;99.90;;;;;;4917380;29;20931;-75
2023/01/09 06:49:22;;;;;;;3.00;1.60;;;8.90;99.90;;;;;;4915962;29;20239;-75
2023/01/09 06:51:49;;;;;;;3.20;1.20;;;8.90;99.90;;;;;;4914059;29;20739;-75
2023/01/09 06:54:16;;;;;;;2.60;1.23;;;9.00;99.90;;;;;;4912637;29;20809;-74
2023/01/09 06:56:42;;;;;;;2.17;1.43;;;8.90;99.90;;;;;;4910421;29;20448;-74
2023/01/09 06:59:07;;;;;;;5.83;2.23;;;8.80;99.90;;;;;;4908848;29;20531;-73
2023/01/09 07:01:33;;;;;;;3.60;1.53;;;8.90;99.90;;;;;;4910709;29;20187;-73
2023/01/09 07:03:58;;;;;;;7.70;1.37;;;8.80;99.90;;;;;;4903621;29;20194;-73
2023/01/09 07:06:24;;;;;;;3.97;1.20;;;8.70;99.90;;;;;;4902725;29;20204;-73
2023/01/09 07:08:50;;;;;;;2.77;1.77;;;8.80;99.90;;;;;;4909162;29;20242;-73
2023/01/09 07:11:15;;;;;;;7.67;1.50;;;8.80;99.90;;;;;;4906640;29;20216;-73
2023/01/09 07:13:41;;;;;;;6.00;1.60;;;8.80;99.90;;;;;;4899197;29;20227;-73
2023/01/09 07:16:07;;;;;;;6.00;2.37;;;8.70;99.90;;;;;;4906058;29;20648;-72
2023/01/09 07:18:32;;;;;;;6.47;1.33;;;8.80;99.90;;;;;;4911310;29;20550;-73
2023/01/09 07:20:58;;;;;;;3.50;1.90;;;8.80;99.90;;;;;;4912415;29;20187;-73
2023/01/09 07:23:23;;;;;;;9.50;1.87;;;8.80;99.90;;;;;;4910956;29;20191;-73
2023/01/09 07:25:50;;;;;;;9.07;1.87;;;8.70;99.90;;;;;;4908840;29;20541;-74
2023/01/09 07:28:15;;;;;;;2.50;1.30;;;8.70;99.90;;;;;;4907019;29;20611;-74
2023/01/09 07:30:41;;;;;;;5.90;1.20;;;8.70;99.90;;;;;;4905391;29;20555;-72
2023/01/09 07:33:07;;;;;;;3.97;1.60;;;8.80;99.90;;;;;;4903871;29;20629;-74
2023/01/09 07:35:32;;;;;;;1.87;1.10;;;8.80;99.90;;;;;;4901743;29;20220;-71
2023/01/09 07:37:58;;;;;;;4.20;1.47;;;8.80;99.90;;;;;;4900246;29;20219;-72
2023/01/09 07:40:23;;;;;;;3.43;1.80;;;8.80;99.90;;;;;;4899333;29;20215;-72
2023/01/09 07:42:54;;;;;;;4.23;1.67;;;8.80;99.90;;;;;;4900423;29;20192;-72
2023/01/09 07:45:19;;;;;;;1.90;1.40;;;8.80;99.90;;;;;;4913804;29;20191;-72
2023/01/09 07:47:45;;;;;;;3.10;1.33;;;8.80;99.90;;;;;;4912347;29;20424;-72
2023/01/09 07:50:10;;;;;;;4.17;1.60;;;8.90;99.90;;;;;;4910389;29;20192;-72
2023/01/09 07:52:36;;;;;;;13.03;2.27;;;8.90;99.90;;;;;;4908832;29;20311;-72
2023/01/09 07:55:02;;;;;;;5.03;1.67;;;8.90;99.90;;;;;;4907664;29;20217;-72
2023/01/09 07:57:29;;;;;;;4.20;1.40;;;8.80;99.90;;;;;;4910261;29;20195;-71
2023/01/09 07:59:55;;;;;;;3.20;1.90;;;8.90;99.90;;;;;;4907816;29;20456;-71
2023/01/09 08:02:20;;;;;;;3.53;1.17;;;8.80;99.90;;;;;;4901466;29;20428;-70
2023/01/09 08:04:46;;;;;;;8.87;2.10;;;8.80;99.90;;;;;;4900223;29;20211;-71
2023/01/09 08:07:11;;;;;;;1.77;1.10;;;8.80;99.90;;;;;;4898694;29;20652;-71
2023/01/09 08:09:37;;;;;;;1.80;1.10;;;8.80;99.90;;;;;;4899701;29;20188;-71
2023/01/09 08:12:03;;;;;;;3.53;1.63;;;8.80;99.90;;;;;;4901032;29;20197;-72
2023/01/09 08:14:29;;;;;;;6.10;1.23;;;8.90;99.90;;;;;;4902886;29;20232;-71
2023/01/09 08:16:55;;;;;;;5.53;1.63;;;8.90;99.90;;;;;;4904836;29;20491;-71
2023/01/09 08:19:20;;;;;;;2.83;2.20;;;8.90;99.90;;;;;;4907761;29;20251;-70
2023/01/09 08:21:46;;;;;;;5.93;1.40;;;9.00;99.90;;;;;;4906890;29;20188;-70
2023/01/09 08:24:11;;;;;;;1.50;1.10;;;8.90;99.90;;;;;;4905296;29;20557;-70
2023/01/09 08:26:37;;;;;;;2.13;1.40;;;8.90;99.90;;;;;;4903201;29;20251;-70
2023/01/09 08:29:02;;;;;;;2.30;1.00;;;8.80;99.90;;;;;;4901902;29;20195;-72
2023/01/09 08:31:28;;;;;;;5.67;1.70;;;8.80;99.90;;;;;;4900177;29;20231;-73
2023/01/09 08:33:53;;;;;;;5.00;1.70;;;8.80;99.90;;;;;;4893195;29;20447;-75
2023/01/09 08:36:19;;;;;;;4.90;2.20;;;8.80;99.90;;;;;;4901699;29;20543;-76
2023/01/09 08:38:44;;;;;;;1.50;1.30;;;8.80;99.90;;;;;;4901259;29;20180;-75
2023/01/09 08:49:22;;;;;;;2.20;1.40;;;8.70;99.90;;;;;;4908113;29;20491;-76
2023/01/09 08:51:48;;;;;;;2.03;1.73;;;8.80;99.90;;;;;;4910789;29;20444;-76
2023/01/09 08:54:13;;;;;;;1.80;1.30;;;8.80;99.90;;;;;;4906230;29;20212;-74
2023/01/09 08:56:39;;;;;;;1.77;1.17;;;8.70;99.90;;;;;;4904162;29;20216;-77
2023/01/09 08:59:04;;;;;;;2.60;1.30;;;8.80;99.90;;;;;;4900001;29;20667;-76
2023/01/09 09:01:30;;;;;;;1.57;1.23;;;8.80;99.90;;;;;;4909406;29;20181;-76
2023/01/09 09:03:56;;;;;;;6.33;1.60;;;8.70;99.90;;;;;;4899245;29;20191;-75
2023/01/09 09:06:21;;;;;;;5.43;1.50;;;8.70;99.90;;;;;;4910233;29;20455;-77
2023/01/09 09:08:47;;;;;;;7.40;2.10;;;8.70;99.90;;;;;;4906461;29;20195;-78
2023/01/09 09:11:12;;;;;;;2.87;1.60;;;8.80;99.90;;;;;;4906517;29;20188;-77
2023/01/09 09:13:38;;;;;;;5.00;1.77;;;8.80;99.90;;;;;;4908598;29;20188;-76
2023/01/09 09:16:04;;;;;;;4.47;1.40;;;8.70;99.90;;;;;;4911135;29;20231;-76
2023/01/09 09:18:29;;;;;;;4.83;1.13;;;8.70;99.90;;;;;;4913244;29;20199;-75
2023/01/09 09:20:55;;;;;;;2.60;1.57;;;8.80;99.90;;;;;;4914249;29;20235;-72
2023/01/09 09:23:22;;;;;;;7.20;1.70;;;8.80;99.90;;;;;;4915343;29;20188;-73
2023/01/09 09:25:47;;;;;;;2.57;1.40;;;8.80;99.90;;;;;;4910516;29;20198;-73
2023/01/09 09:28:13;;;;;;;5.60;1.67;;;8.80;99.90;;;;;;4919252;29;20935;-76
2023/01/09 09:30:38;;;;;;;3.27;1.30;;;8.90;99.90;;;;;;4919149;29;20587;-75
2023/01/09 09:33:04;;;;;;;4.07;1.67;;;8.90;99.90;;;;;;4898784;29;20572;-76
2023/01/09 09:35:32;;;;;;;4.53;1.53;;;8.90;99.90;;;;;;4905053;29;20223;-76
2023/01/09 09:38:00;;;;;;;4.67;1.77;;;9.00;99.90;;;;;;4910349;29;20947;-76
2023/01/09 09:40:46;;;;;;;10.97;1.73;;;8.90;99.90;;;;;;4912346;29;20466;-76
2023/01/09 09:46:11;;;;;;;2.10;1.10;;;9.00;99.90;;;;;;4908504;29;20848;-76
2023/01/09 09:48:42;;;;;;;2.93;1.50;;;9.00;99.90;;;;;;4906702;29;20528;-75
2023/01/09 09:51:17;;;;;;;5.47;1.60;;;9.00;99.90;;;;;;4913088;29;21042;-75
2023/01/09 09:53:50;;;;;;;5.03;1.57;;;9.00;99.90;;;;;;4917630;29;20435;-76
2023/01/09 09:56:20;;;;;;;3.10;1.53;;;9.00;99.90;;;;;;4919442;29;20456;-75
2023/01/09 09:59:01;;;;;;;11.13;3.20;;;9.00;99.90;;;;;;4918685;29;20486;-76
2023/01/09 10:01:38;;;;;;;6.97;1.57;;;8.90;99.90;;;;;;4916416;29;20506;-73
2023/01/09 10:04:09;;;;;;;3.27;1.17;;;8.90;99.90;;;;;;4914320;29;20783;-75
2023/01/09 10:06:42;;;;;;;6.67;1.70;;;8.90;99.90;;;;;;4912362;29;20563;-71
2023/01/09 10:09:31;;;;;;;7.07;1.90;;;9.00;99.90;;;;;;4910467;29;20511;-76
2023/01/09 10:12:29;;;;;;;1.60;1.23;;;9.00;99.90;;;;;;4908648;29;20435;-75
2023/01/09 10:14:59;;;;;;;7.73;1.53;;;9.00;99.90;;;;;;4907267;29;20499;-74
2023/01/09 10:17:34;;;;;;;3.07;1.73;;;8.90;99.90;;;;;;4914024;29;20431;-74
2023/01/09 10:20:10;;;;;;;4.40;1.80;;;8.90;99.90;;;;;;4903029;29;20440;-73
2023/01/09 10:23:06;;;;;;;1.70;1.50;;;8.90;99.90;;;;;;4901355;29;20443;-73
2023/01/09 10:26:00;;;;;;;4.67;1.77;;;8.90;99.90;;;;;;4900547;29;20928;-74
2023/01/09 10:28:48;;;;;;;3.43;2.70;;;8.90;99.90;;;;;;4905562;29;20518;-74
2023/01/09 10:31:28;;;;;;;2.50;1.53;;;8.80;99.90;;;;;;4904437;29;20476;-76
2023/01/09 10:34:18;;;;;;;5.17;1.97;;;8.80;99.90;;;;;;4906330;29;20436;-77
2023/01/09 10:37:00;;;;;;;6.07;3.13;;;8.80;99.90;;;;;;4909708;29;20484;-77
2023/01/09 10:39:52;;;;;;;3.00;2.07;;;8.80;99.90;;;;;;4908389;29;20443;-78
2023/01/09 10:42:30;;;;;;;3.37;1.90;;;8.80;99.90;;;;;;4906751;29;20483;-74
2023/01/09 10:45:18;;;;;;;3.80;1.60;;;8.80;99.90;;;;;;4910519;29;20479;-74
2023/01/09 10:47:44;;;;;;;5.03;2.37;;;8.80;99.90;;;;;;4914853;29;20480;-72
2023/01/09 10:50:21;;;;;;;5.33;2.23;;;8.90;99.90;;;;;;4917352;29;20468;-73
2023/01/09 10:52:52;;;;;;;2.70;2.03;;;8.90;99.90;;;;;;4917277;29;20188;-72
2023/01/09 10:55:29;;;;;;;5.10;2.60;;;9.00;99.90;;;;;;4914726;29;20479;-73
2023/01/09 10:58:00;;;;;;;4.23;2.40;;;9.10;99.90;;;;;;4913460;29;20879;-73
2023/01/09 11:00:26;;;;;;;5.07;2.10;;;9.20;99.90;;;;;;4912211;29;20432;-73
2023/01/09 11:02:53;;;;;;;5.57;1.97;;;9.10;99.90;;;;;;4892065;29;20881;-73
2023/01/09 11:05:22;;;;;;;4.77;1.90;;;9.30;99.90;;;;;;4908423;29;20200;-71
2023/01/09 11:08:28;;;;;;;6.17;2.20;;;9.40;99.90;;;;;;4909662;29;20785;-72
2023/01/09 11:10:56;;;;;;;3.00;1.90;;;9.50;99.90;;;;;;4903611;29;21002;-75
2023/01/09 11:13:28;;;;;;;7.50;2.20;;;9.60;99.90;;;;;;4905737;29;20444;-77
2023/01/09 11:16:04;;;;;;;4.53;1.77;;;9.70;99.90;;;;;;4901489;29;20555;-77
2023/01/09 11:18:32;;;;;;;5.73;1.90;;;9.70;99.90;;;;;;4899181;29;20788;-78
2023/01/09 11:21:36;;;;;;;6.50;1.30;;;9.80;99.90;;;;;;4899978;29;20440;-77
2023/01/09 11:24:20;;;;;;;2.60;1.83;;;9.80;99.90;;;;;;4903051;29;20863;-83
2023/01/09 11:26:48;;;;;;;7.70;2.40;;;9.80;99.90;;;;;;4909839;29;20478;-82
2023/01/09 11:29:15;;;;;;;6.90;2.00;;;9.90;99.90;;;;;;4909606;29;20431;-82
2023/01/09 11:31:57;;;;;;;2.50;1.70;;;9.90;99.90;;;;;;4908695;29;20479;-82
2023/01/09 11:34:26;;;;;;;4.63;2.00;;;9.90;99.90;;;;;;4895071;29;20841;-82
2023/01/09 11:37:01;;;;;;;3.40;1.40;;;9.90;99.90;;;;;;4907534;29;20499;-81
2023/01/09 11:39:30;;;;;;;3.40;1.60;;;9.90;99.90;;;;;;4903793;29;20434;-81
2023/01/09 11:41:59;;;;;;;5.23;3.40;;;9.90;99.90;;;;;;4911486;29;20536;-85
2023/01/09 11:44:27;;;;;;;2.80;1.50;;;9.90;99.90;;;;;;4917168;29;20468;-85
2023/01/09 11:46:53;;;;;;;5.53;2.00;;;10.00;99.90;;;;;;4914875;29;20523;-83
2023/01/09 11:49:30;;;;;;;7.97;1.93;;;10.10;99.90;;;;;;4902171;29;20483;-77
2023/01/09 11:52:18;;;;;;;3.80;2.27;;;10.10;99.90;;;;;;4903146;29;20184;-76
2023/01/09 11:54:53;;;;;;;4.57;2.20;;;9.90;99.90;;;;;;4905184;29;20479;-76
2023/01/09 11:57:22;;;;;;;3.20;1.67;;;9.80;99.90;;;;;;4906856;29;21038;-76
2023/01/09 11:59:48;;;;;;;4.97;2.47;;;9.90;99.90;;;;;;4908206;29;20881;-76
2023/01/09 12:02:50;;;;;;;3.20;2.13;;;9.90;99.90;;;;;;4906445;29;20444;-76
2023/01/09 12:05:30;;;;;;;4.20;2.20;;;9.80;99.90;;;;;;4912103;29;20448;-76
2023/01/09 12:08:18;;;;;;;9.87;2.23;;;9.70;99.90;;;;;;4902375;29;20801;-76
2023/01/09 12:11:10;;;;;;;3.20;1.90;;;9.70;99.90;;;;;;4915599;29;20431;-76
2023/01/09 12:13:51;;;;;;;7.87;1.67;;;9.70;99.90;;;;;;4906113;29;20869;-74
2023/01/09 12:16:26;;;;;;;1.60;1.20;;;9.60;99.90;;;;;;4908159;29;20891;-76
2023/01/09 12:19:10;;;;;;;3.43;1.63;;;9.70;99.90;;;;;;4896620;29;20435;-76
2023/01/09 12:21:44;;;;;;;3.10;1.70;;;9.70;99.90;;;;;;4910349;29;20444;-76
2023/01/09 12:24:36;;;;;;;3.87;1.50;;;9.70;99.90;;;;;;4909989;29;20442;-77
2023/01/09 12:27:28;;;;;;;3.43;1.43;;;9.80;99.90;;;;;;4907668;29;20443;-74
2023/01/09 12:30:16;;;;;;;4.63;1.90;;;9.70;99.90;;;;;;4905322;29;20440;-80
2023/01/09 12:32:52;;;;;;;2.70;1.50;;;9.70;99.90;;;;;;4909957;29;20507;-80
2023/01/09 12:35:29;;;;;;;3.10;1.57;;;9.70;99.90;;;;;;4909251;29;20995;-80
2023/01/09 12:38:26;;;;;;;3.63;1.70;;;9.80;99.90;;;;;;4911848;29;20502;-81
2023/01/09 12:41:03;;;;;;;3.80;2.10;;;9.80;99.90;;;;;;4900918;29;20421;-75
2023/01/09 12:43:39;;;;;;;3.63;1.80;;;9.70;99.90;;;;;;4899942;29;20499;-75
2023/01/09 12:46:10;;;;;;;6.20;2.30;;;9.70;99.90;;;;;;4911065;29;20446;-75
2023/01/09 12:49:14;;;;;;;2.53;1.83;;;9.60;99.90;;;;;;4907138;29;20436;-76
2023/01/09 12:51:48;;;;;;;10.80;2.00;;;9.60;99.90;;;;;;4909377;29;20434;-75
2023/01/09 12:54:19;;;;;;;3.43;1.70;;;9.50;99.90;;;;;;4910854;29;20470;-74
2023/01/09 12:56:50;;;;;;;4.43;2.00;;;9.60;99.90;;;;;;4912360;29;20447;-73
2023/01/09 12:59:29;;;;;;;7.13;2.33;;;9.50;99.90;;;;;;4907541;29;20851;-73
2023/01/09 13:02:15;;;;;;;6.40;2.40;;;9.40;99.90;;;;;;4905334;29;20530;-76
2023/01/09 13:04:49;;;;;;;4.87;2.43;;;9.40;99.90;;;;;;4903999;29;20956;-75
2023/01/09 13:07:23;;;;;;;4.83;2.43;;;9.40;99.90;;;;;;4901915;29;20807;-72
2023/01/09 13:10:05;;;;;;;4.40;2.10;;;9.40;99.90;;;;;;4901983;29;20443;-70
2023/01/09 13:12:36;;;;;;;12.00;2.13;;;9.40;99.90;;;;;;4904213;29;20519;-71
2023/01/09 13:15:25;;;;;;;4.40;2.23;;;9.20;99.90;;;;;;4910226;29;20476;-71
2023/01/09 13:17:55;;;;;;;5.27;2.60;;;9.10;99.90;;;;;;4907768;29;20552;-72
2023/01/09 13:20:42;;;;;;;7.13;1.90;;;9.20;99.90;;;;;;4911442;29;20448;-72
2023/01/09 13:23:14;;;;;;;4.97;2.07;;;9.20;99.90;;;;;;4909525;29;20463;-69
2023/01/09 13:25:44;;;;;;;2.77;2.17;;;9.20;99.90;;;;;;4907697;29;20486;-72
2023/01/09 13:28:15;;;;;;;3.40;2.03;;;9.20;99.90;;;;;;4906540;29;20922;-73
2023/01/09 13:31:11;;;;;;;3.83;2.63;;;9.00;99.90;;;;;;4916013;29;20472;-72
2023/01/09 13:33:48;;;;;;;2.50;1.90;;;9.00;99.90;;;;;;4918022;29;20518;-69
2023/01/09 13:36:35;;;;;;;1.70;1.60;;;9.10;99.90;;;;;;4918543;29;20483;-69
2023/01/09 13:39:01;;;;;;;3.80;2.23;;;9.20;99.90;;;;;;4902500;29;20440;-69
2023/01/09 13:44:29;;;;;;;3.10;1.80;;;9.20;99.90;;;;;;4913335;29;20451;-72
2023/01/09 13:46:58;;;;;;;6.90;1.90;;;9.20;99.90;;;;;;4911145;29;20465;-71
2023/01/09 13:49:41;;;;;;;4.20;2.53;;;9.30;99.90;;;;;;4908385;29;20441;-71
2023/01/09 13:52:32;;;;;;;4.67;1.90;;;9.20;99.90;;;;;;4911345;29;20440;-71
2023/01/09 13:54:57;;;;;;;4.43;2.40;;;9.20;99.90;;;;;;4913109;29;20579;-72
2023/01/09 13:57:29;;;;;;;5.50;2.40;;;9.20;99.90;;;;;;4915267;29;20518;-70
2023/01/09 14:00:17;;;;;;;6.27;3.03;;;9.20;99.90;;;;;;4916338;29;20324;-71
2023/01/09 14:02:45;;;;;;;3.60;1.70;;;9.20;99.90;;;;;;4918363;29;20446;-71
2023/01/09 14:05:16;;;;;;;4.60;2.23;;;9.20;99.90;;;;;;4917334;29;20435;-71
2023/01/09 14:07:48;;;;;;;4.03;2.10;;;9.10;99.90;;;;;;4915518;29;20448;-71
2023/01/09 14:10:23;;;;;;;3.90;1.93;;;9.10;99.90;;;;;;4907240;29;20440;-70
2023/01/09 14:12:51;;;;;;;6.57;2.07;;;9.10;99.90;;;;;;4906627;29;20434;-71
2023/01/09 14:15:30;;;;;;;2.00;1.80;;;9.10;99.90;;;;;;4908182;29;20507;-71
2023/01/09 14:18:02;;;;;;;4.50;1.97;;;9.20;99.90;;;;;;4910765;29;20424;-71
2023/01/09 14:20:35;;;;;;;3.20;1.90;;;9.20;99.90;;;;;;4911880;29;20432;-72
2023/01/09 14:23:02;;;;;;;5.93;2.43;;;9.20;99.90;;;;;;4913711;29;20828;-72
2023/01/09 14:25:29;;;;;;;8.30;2.10;;;9.20;99.90;;;;;;4903078;29;20467;-72
2023/01/09 14:27:58;;;;;;;4.33;2.27;;;9.20;99.90;;;;;;4900883;29;20484;-72
2023/01/09 14:30:26;;;;;;;3.53;2.07;;;9.20;99.90;;;;;;4899779;29;20508;-72
2023/01/09 14:33:01;;;;;;;3.20;2.30;;;9.20;99.90;;;;;;4901291;29;20439;-71
2023/01/09 14:35:50;;;;;;;4.00;2.13;;;9.20;99.90;;;;;;4914761;29;20478;-72
2023/01/09 14:38:45;;;;;;;3.90;2.70;;;9.20;99.90;;;;;;4904899;29;20479;-71
2023/01/09 14:44:37;;;;;;;3.33;2.40;;;9.30;99.90;;;;;;4908548;29;20515;-72
2023/01/09 14:47:21;;;;;;;3.07;2.60;;;9.30;99.90;;;;;;4906515;29;20518;-72
2023/01/09 14:49:59;;;;;;;4.07;2.50;;;9.20;99.90;;;;;;4906379;29;20514;-72
2023/01/09 14:52:32;;;;;;;6.63;3.13;;;9.20;99.90;;;;;;4914446;29;20488;-72
2023/01/09 14:55:01;;;;;;;5.87;2.27;;;9.20;99.90;;;;;;4900739;29;20484;-72
2023/01/09 14:57:32;;;;;;;3.20;2.10;;;9.30;99.90;;;;;;4899403;29;20483;-72
2023/01/09 15:00:12;;;;;;;7.13;2.90;;;9.30;99.90;;;;;;4899829;29;20527;-70
2023/01/09 15:02:39;;;;;;;4.13;2.93;;;9.30;99.90;;;;;;4900464;29;20960;-70
2023/01/09 15:05:25;;;;;;;5.43;2.97;;;9.30;99.90;;;;;;4901841;29;20449;-70
2023/01/09 15:07:57;;;;;;;5.60;2.90;;;9.20;99.90;;;;;;4907852;29;20526;-69
2023/01/09 15:10:36;;;;;;;5.67;2.60;;;9.10;99.90;;;;;;4905051;29;20527;-70
2023/01/09 15:13:06;;;;;;;3.90;2.60;;;9.20;99.90;;;;;;4903992;29;20459;-72
2023/01/09 15:15:34;;;;;;;3.27;2.57;;;9.10;99.90;;;;;;4903044;29;20484;-72
2023/01/09 15:18:02;;;;;;;6.80;2.50;;;9.10;99.90;;;;;;4901459;29;20538;-71
2023/01/09 15:20:30;;;;;;;6.30;2.73;;;9.10;99.90;;;;;;4899494;29;20452;-73
2023/01/09 15:22:57;;;;;;;5.70;2.43;;;9.10;99.90;;;;;;4897240;29;20527;-71
2023/01/09 15:25:30;;;;;;;6.63;2.30;;;9.10;99.90;;;;;;4897269;29;20437;-73
2023/01/09 15:27:58;;;;;;;5.40;2.60;;;9.10;99.90;;;;;;4898455;29;20444;-70
2023/01/09 15:30:34;;;;;;;2.37;2.17;;;9.10;99.90;;;;;;4900006;29;20778;-72
2023/01/09 15:33:13;;;;;;;9.77;3.00;;;9.10;99.90;;;;;;4901936;29;20507;-71
2023/01/09 15:35:48;;;;;;;2.63;2.40;;;9.10;99.90;;;;;;4903067;29;20508;-73
2023/01/09 15:38:17;;;;;;;3.17;2.67;;;9.40;99.90;;;;;;4911069;29;20532;-79
2023/01/09 15:40:51;;;;;;;5.53;3.27;;;9.40;99.90;;;;;;4906130;29;20448;-82
2023/01/09 15:43:17;;;;;;;7.60;2.70;;;10.00;99.90;;;;;;4904274;29;20534;-75
2023/01/09 15:45:45;;;;;;;14.07;2.83;;;10.20;99.90;;;;;;4902563;29;20496;-71
2023/01/09 15:48:21;;;;;;;6.10;3.03;;;10.40;99.90;;;;;;4913954;29;20491;-74
2023/01/09 15:50:49;;;;;;;11.47;2.93;;;10.40;99.90;;;;;;4909580;29;20523;-74
2023/01/09 15:53:20;;;;;;;6.77;2.57;;;10.60;99.90;;;;;;4915109;29;20436;-73
2023/01/09 15:56:06;;;;;;;9.43;2.80;;;10.60;99.90;;;;;;4911446;29;20536;-73
2023/01/09 15:58:36;;;;;;;9.63;2.53;;;10.60;99.90;;;;;;4916338;29;20471;-77
2023/01/09 16:01:11;;;;;;;5.50;3.00;;;10.70;99.90;;;;;;4914746;29;20458;-75
2023/01/09 16:03:37;;;;;;;4.40;2.73;;;10.70;99.90;;;;;;4916625;29;20824;-72
2023/01/09 16:06:09;;;;;;;4.50;2.40;;;10.70;99.90;;;;;;4914703;29;20890;-74
2023/01/09 16:08:39;;;;;;;3.10;2.70;;;10.60;99.90;;;;;;4914708;29;20436;-75
2023/01/09 16:11:07;;;;;;;4.27;2.83;;;10.50;99.90;;;;;;4916287;29;20466;-74
2023/01/09 16:13:41;;;;;;;6.20;2.90;;;10.40;99.90;;;;;;4914649;29;20431;-73
2023/01/09 16:16:07;;;;;;;5.40;2.97;;;10.10;99.90;;;;;;4916852;29;20482;-75
2023/01/09 16:18:36;;;;;;;5.60;3.70;;;9.90;99.90;;;;;;4912119;29;20427;-74
2023/01/09 16:21:22;;;;;;;4.90;3.10;;;9.90;99.90;;;;;;4912443;29;20447;-74
2023/01/09 16:23:59;;;;;;;5.63;2.80;;;9.80;99.90;;;;;;4917477;29;20471;-73
2023/01/09 16:26:28;;;;;;;5.07;3.20;;;9.70;99.90;;;;;;4917700;29;20985;-73
2023/01/09 16:28:54;;;;;;;7.47;3.00;;;9.60;99.90;;;;;;4920727;29;20440;-73
2023/01/09 16:31:30;;;;;;;3.70;3.23;;;9.50;99.90;;;;;;4920245;29;20834;-75
2023/01/09 16:34:05;;;;;;;5.47;3.57;;;9.50;99.90;;;;;;4918618;29;20443;-72
2023/01/09 16:36:33;;;;;;;3.47;3.10;;;9.40;99.90;;;;;;4919514;29;20458;-72
2023/01/09 16:39:01;;;;;;;4.90;3.05;;;9.30;99.90;;;;;;4909619;29;20458;-71
2023/01/09 16:44:12;;;;;;;9.63;4.40;;;9.30;99.90;;;;;;4902449;29;20585;-73
2023/01/09 16:46:43;;;;;;;8.40;3.70;;;9.30;99.90;;;;;;4901075;29;20446;-73
2023/01/09 16:49:18;;;;;;;4.73;3.27;;;9.30;99.90;;;;;;4885549;29;20735;-73
2023/01/09 16:51:45;;;;;;;6.30;3.47;;;9.40;99.90;;;;;;4904238;29;20444;-73
2023/01/09 16:54:10;;;;;;;7.60;4.57;;;9.30;99.90;;;;;;4909918;29;20432;-74
2023/01/09 16:56:37;;;;;;;3.27;2.97;;;9.30;99.90;;;;;;4913158;29;20455;-72
2023/01/09 16:59:03;;;;;;;9.63;4.30;;;9.20;99.90;;;;;;4892894;29;20199;-72
2023/01/09 17:01:29;;;;;;;6.70;3.60;;;9.20;99.90;;;;;;4910477;29;20448;-72
2023/01/09 17:03:54;;;;;;;6.87;3.80;;;9.20;99.90;;;;;;4907713;29;20244;-72
2023/01/09 17:06:27;;;;;;;8.73;3.50;;;9.20;99.90;;;;;;4906639;29;20196;-78
2023/01/09 17:08:53;;;;;;;7.83;3.43;;;9.20;99.90;;;;;;4904881;29;20208;-73
2023/01/09 17:11:22;;;;;;;5.53;3.40;;;9.10;99.90;;;;;;4913278;29;21024;-73
2023/01/09 17:13:47;;;;;;;5.13;4.60;;;9.10;99.90;;;;;;4907660;29;20254;-72
2023/01/09 17:16:15;;;;;;;6.00;4.57;;;9.10;99.90;;;;;;4917813;29;20590;-72
2023/01/09 17:18:41;;;;;;;7.67;4.63;;;9.20;99.90;;;;;;4915916;29;20843;-70
2023/01/09 17:21:20;;;;;;;6.57;3.67;;;9.10;99.90;;;;;;4914021;29;20495;-71
2023/01/09 17:23:46;;;;;;;5.80;4.10;;;9.20;99.90;;;;;;4910222;29;20188;-71
2023/01/09 17:29:03;;;;;;;8.13;4.37;;;9.10;99.90;;;;;;4910383;29;20978;-75
2023/01/09 17:31:30;;;;;;;8.87;4.60;;;9.10;99.90;;;;;;4911563;29;20624;-70
2023/01/09 17:33:55;;;;;;;6.50;5.17;;;9.10;99.90;;;;;;4896000;29;20517;-73
2023/01/09 17:36:28;;;;;;;9.70;5.70;;;9.00;99.90;;;;;;4914905;29;20526;-72
2023/01/09 17:38:54;;;;;;;10.47;5.30;;;9.10;99.90;;;;;;4912780;29;20800;-73
2023/01/09 17:41:24;;;;;;;6.80;4.60;;;9.00;99.90;;;;;;4913547;29;20447;-73
2023/01/09 17:43:50;;;;;;;9.03;5.83;;;9.00;99.90;;;;;;4912467;29;20439;-73